Time;durP1;ratioP1;P1;durP2;ratioP2;P2;SDS_P1;SDS_P2;PMS_P1;PMS_P2;Temp;Humidity;BMP_temperature;BMP_pressure;BME280_temperature;BME280_humidity;BME280_pressure;Samples;Min_cycle;Max_cycle;Signal;HPM_P1;HPM_P2
2019/04/26 00:01:19;;;;;;;3;1.7;;;;;;;12.91;54.96875;931.0211;;;;
2019/04/26 00:03:44;;;;;;;5.1;2;;;;;;;12.8;57.52441;931.0684;;;;
2019/04/26 00:06:13;;;;;;;3;1.8;;;;;;;12.8;56.16992;931.0084;;;;
2019/04/26 00:08:39;;;;;;;3.4;1.7;;;;;;;12.8;55.28613;931.0468;;;;
2019/04/26 00:11:11;;;;;;;3.8;1.6;;;;;;;12.39;56.62207;931.1525;;;;
2019/04/26 00:16:09;;;;;;;3.4;1.6;;;;;;;12.58;56.69336;931.1055;;;;
2019/04/26 00:18:20;;;;;;;3.1;1.6;;;;;;;12.67;55.91309;931.0657;;;;
2019/04/26 00:20:45;;;;;;;1.9;1.4;;;;;;;12.49;55.83203;931.1503;;;;
2019/04/26 00:23:11;;;;;;;2.8;1.4;;;;;;;12.41;55.90234;931.2186;;;;
2019/04/26 00:25:36;;;;;;;3.3;1.3;;;;;;;12.31;56.47363;931.2603;;;;
2019/04/26 00:28:04;;;;;;;4.6;1.4;;;;;;;12.48;55.79688;931.215;;;;
2019/04/26 00:30:29;;;;;;;2.6;1.3;;;;;;;12.49;55.15527;931.108;;;;
2019/04/26 00:32:58;;;;;;;3.3;1.4;;;;;;;12.51;56.65918;931.1486;;;;
2019/04/26 00:35:23;;;;;;;3.9;1.9;;;;;;;12.24;57.55371;931.0341;;;;
2019/04/26 00:37:51;;;;;;;5;1.3;;;;;;;12.49;56.52051;931.0776;;;;
2019/04/26 00:40:17;;;;;;;5.8;1.7;;;;;;;12.54;56.61914;931.0252;;;;
2019/04/26 00:42:43;;;;;;;3.3;1.2;;;;;;;12.36;56.56152;931.0753;;;;
2019/04/26 00:45:08;;;;;;;2.7;1.5;;;;;;;12.46;56.24023;931.1203;;;;
2019/04/26 00:47:33;;;;;;;5.1;1.4;;;;;;;12.17;56.79883;931.1437;;;;
2019/04/26 00:49:58;;;;;;;3.3;1.6;;;;;;;12.28;56.32129;931.033;;;;
2019/04/26 00:52:25;;;;;;;3.4;1.5;;;;;;;12.11;57.3418;931.193;;;;
2019/04/26 00:54:51;;;;;;;4;1.7;;;;;;;11.67;58.15527;931.2278;;;;
2019/04/26 00:57:16;;;;;;;4.9;1.5;;;;;;;11.54;58.60547;931.1526;;;;
2019/04/26 00:59:41;;;;;;;2.2;1.2;;;;;;;11.63;58.36523;931.1141;;;;
2019/04/26 01:02:31;;;;;;;3.5;1.2;;;;;;;11.79;58.42285;931.0575;;;;
2019/04/26 01:04:50;;;;;;;3.9;1.2;;;;;;;12.04;57.41309;931.0387;;;;
2019/04/26 01:07:15;;;;;;;2.4;1.3;;;;;;;12.06;57.3125;931.0369;;;;
2019/04/26 01:09:48;;;;;;;4.6;1.6;;;;;;;12.01;57.2373;930.8929;;;;
2019/04/26 01:12:13;;;;;;;4.7;1.2;;;;;;;12.15;56.86523;930.7417;;;;
2019/04/26 01:14:38;;;;;;;4.2;1.2;;;;;;;12.21;56.43848;930.743;;;;
2019/04/26 01:17:04;;;;;;;3.1;1.2;;;;;;;11.98;56.95801;930.7692;;;;
2019/04/26 01:19:29;;;;;;;5.5;1.3;;;;;;;11.29;59.38379;930.8533;;;;
2019/04/26 01:21:54;;;;;;;4.3;1.5;;;;;;;11.04;60.26367;930.7228;;;;
2019/04/26 01:24:21;;;;;;;4.4;1.5;;;;;;;11.34;59.5166;930.7072;;;;
2019/04/26 01:26:46;;;;;;;4.6;1.6;;;;;;;11.19;60.53613;930.7061;;;;
2019/04/26 01:29:11;;;;;;;7.2;1.7;;;;;;;11.49;60.65723;930.7297;;;;
2019/04/26 01:31:37;;;;;;;3.5;1.4;;;;;;;11.56;59.08887;930.6573;;;;
2019/04/26 01:34:02;;;;;;;3.1;1.3;;;;;;;11.59;59.05859;930.7481;;;;
2019/04/26 01:36:27;;;;;;;3.6;1.4;;;;;;;11.66;59.58203;930.8085;;;;
2019/04/26 01:38:52;;;;;;;4.4;1.5;;;;;;;11.71;59.40723;930.832;;;;
2019/04/26 01:41:33;;;;;;;4.9;1.6;;;;;;;11.45;59.61035;930.8821;;;;
2019/04/26 01:44:01;;;;;;;4.9;1.3;;;;;;;11.3;59.41895;930.8348;;;;
2019/04/26 01:46:22;;;;;;;4.8;1.7;;;;;;;11.04;59.95508;930.863;;;;
2019/04/26 01:48:47;;;;;;;2.9;1.5;;;;;;;11.02;60.12402;930.848;;;;
2019/04/26 01:51:06;;;;;;;3.6;1.3;;;;;;;11.13;59.49902;930.6961;;;;
2019/04/26 01:53:34;;;;;;;3.9;1.2;;;;;;;11.23;59.38672;930.7022;;;;
2019/04/26 01:55:59;;;;;;;4.5;1.4;;;;;;;11.43;59.26465;930.7483;;;;
2019/04/26 01:58:32;;;;;;;4.7;1.4;;;;;;;11.42;59.20703;930.7372;;;;
2019/04/26 02:01:37;;;;;;;14.9;2.6;;;;;;;11.39;59.76367;930.6805;;;;
2019/04/26 02:03:26;;;;;;;8.5;1.8;;;;;;;11.4;59.2959;930.6111;;;;
2019/04/26 02:05:45;;;;;;;2.7;1.1;;;;;;;11.29;59.13184;930.5217;;;;
2019/04/26 02:08:11;;;;;;;6.3;1.6;;;;;;;10.9;60.15234;930.653;;;;
2019/04/26 02:10:37;;;;;;;6.7;1.4;;;;;;;10.49;61.64941;930.6961;;;;
2019/04/26 02:13:04;;;;;;;3;1.3;;;;;;;10.42;62.01465;930.6278;;;;
2019/04/26 02:15:29;;;;;;;4.4;1.5;;;;;;;10.42;62.3457;930.6151;;;;
2019/04/26 02:17:59;;;;;;;2.7;1.3;;;;;;;10.29;63.01172;930.514;;;;
2019/04/26 02:20:24;;;;;;;6;1.7;;;;;;;10.43;62.15332;930.4487;;;;
2019/04/26 02:23:00;;;;;;;5.2;1.4;;;;;;;10.53;61.83594;930.4508;;;;
2019/04/26 02:25:17;;;;;;;4.3;1.7;;;;;;;10.65;61.31738;930.4506;;;;
2019/04/26 02:27:44;;;;;;;10.2;2.7;;;;;;;10.5;62.58594;930.3602;;;;
2019/04/26 02:30:09;;;;;;;8.2;2.7;;;;;;;10.65;62.35645;930.4205;;;;
2019/04/26 02:32:34;;;;;;;6.9;2.6;;;;;;;10.99;61.28613;930.3117;;;;
2019/04/26 02:34:59;;;;;;;9.1;2.4;;;;;;;10.77;60.91016;930.3188;;;;
2019/04/26 02:37:25;;;;;;;6;2.1;;;;;;;11.02;60.50098;930.2617;;;;
2019/04/26 02:39:50;;;;;;;5.8;2.2;;;;;;;11.1;60.3623;930.3425;;;;
2019/04/26 02:42:17;;;;;;;6.6;2;;;;;;;10.58;61.51367;930.3981;;;;
2019/04/26 02:45:44;;;;;;;8;2.2;;;;;;;10.6;61.80176;930.277;;;;
2019/04/26 02:47:36;;;;;;;6;2.1;;;;;;;10.97;60.63086;930.2377;;;;
2019/04/26 02:49:52;;;;;;;8.4;2.1;;;;;;;10.73;60.81445;930.2888;;;;
2019/04/26 02:52:17;;;;;;;2.9;1.5;;;;;;;10.36;62.3252;930.1669;;;;
2019/04/26 02:54:46;;;;;;;6.6;2;;;;;;;10.54;61.51758;930.1992;;;;
2019/04/26 02:57:08;;;;;;;4.5;1.8;;;;;;;10.5;61.78613;930.2838;;;;
2019/04/26 02:59:33;;;;;;;4.1;1.8;;;;;;;10.53;62.09961;930.1364;;;;
2019/04/26 03:01:58;;;;;;;4.5;1.6;;;;;;;10.72;61.45313;929.9966;;;;
2019/04/26 03:04:23;;;;;;;4.9;1.5;;;;;;;10.95;60.42285;929.9718;;;;
2019/04/26 03:06:52;;;;;;;3.8;1.5;;;;;;;10.61;61.28906;930.0934;;;;
2019/04/26 03:09:20;;;;;;;6.9;1.5;;;;;;;10.58;61.37598;930.1227;;;;
2019/04/26 03:11:42;;;;;;;7.4;1.9;;;;;;;10.74;61.2041;930.0244;;;;
2019/04/26 03:16:53;;;;;;;4.6;1.9;;;;;;;10.75;61.61719;930.0912;;;;
2019/04/26 03:19:23;;;;;;;5.1;1.8;;;;;;;10.08;63.78027;930.1495;;;;
2019/04/26 03:21:58;;;;;;;6.9;2.1;;;;;;;10.24;63.50781;930.0567;;;;
2019/04/26 03:24:21;;;;;;;3.9;1.9;;;;;;;10.04;63.77344;930.0948;;;;
2019/04/26 03:26:48;;;;;;;4.7;2;;;;;;;10.45;62.72754;930.1534;;;;
2019/04/26 03:29:11;;;;;;;5.3;1.9;;;;;;;10.6;61.65234;930.0779;;;;
2019/04/26 03:31:37;;;;;;;7.3;2;;;;;;;10.6;61.40137;930.0183;;;;
2019/04/26 03:34:21;;;;;;;10;2.2;;;;;;;10.65;61.55859;930.0168;;;;
2019/04/26 03:36:53;;;;;;;5.4;2.4;;;;;;;10.57;63.8291;930.0932;;;;
2019/04/26 03:39:16;;;;;;;10;2.8;;;;;;;10.33;62.84766;930.0508;;;;
2019/04/26 03:41:58;;;;;;;4.7;2;;;;;;;9.72;64.59277;930.0771;;;;
2019/04/26 03:44:04;;;;;;;6.4;2;;;;;;;9.5;65.24414;930.0952;;;;
2019/04/26 03:46:29;;;;;;;5.1;1.7;;;;;;;9.81;64.64063;930.1227;;;;
2019/04/26 03:48:54;;;;;;;6.1;2;;;;;;;9.5;65.99609;930.1119;;;;
2019/04/26 03:51:21;;;;;;;7.1;2.1;;;;;;;9.86;64.51172;930.0748;;;;
2019/04/26 03:53:46;;;;;;;5;1.9;;;;;;;9.83;64.08398;930.4645;;;;
2019/04/26 03:56:14;;;;;;;4.3;1.9;;;;;;;9.58;65.03809;930.3924;;;;
2019/04/26 03:59:07;;;;;;;4.8;2;;;;;;;9.5;65.6543;930.5148;;;;
2019/04/26 04:02:48;;;;;;;5.1;2;;;;;;;9.16;67.51367;930.4264;;;;
2019/04/26 04:05:14;;;;;;;4.8;2;;;;;;;9.36;66.88477;930.4317;;;;
2019/04/26 04:07:31;;;;;;;5.9;1.7;;;;;;;9.78;65.01172;930.5668;;;;
2019/04/26 04:09:56;;;;;;;4.2;1.8;;;;;;;10.03;64.57031;930.4686;;;;
2019/04/26 04:12:21;;;;;;;6.4;1.8;;;;;;;10.26;64.11523;930.4361;;;;
2019/04/26 04:14:46;;;;;;;7.9;1.9;;;;;;;10.17;65.55078;930.3052;;;;
2019/04/26 04:17:24;;;;;;;4.7;1.8;;;;;;;10.41;65.18652;930.5225;;;;
2019/04/26 04:19:56;;;;;;;3.9;1.9;;;;;;;10.4;65.29883;930.5958;;;;
2019/04/26 04:22:02;;;;;;;5;1.8;;;;;;;10.39;65.86719;930.4947;;;;
2019/04/26 04:24:27;;;;;;;6.4;2;;;;;;;10.37;66.6875;930.552;;;;
2019/04/26 04:26:52;;;;;;;6.3;1.8;;;;;;;10.44;66.77734;930.6429;;;;
2019/04/26 04:29:17;;;;;;;8.6;1.8;;;;;;;10.66;65.97852;930.6313;;;;
2019/04/26 04:31:42;;;;;;;6;2.1;;;;;;;10.75;66.15234;930.6987;;;;
2019/04/26 04:34:07;;;;;;;9.7;2.5;;;;;;;10.52;67.70313;930.7445;;;;
2019/04/26 04:36:35;;;;;;;6.8;2.1;;;;;;;10.54;67.96973;930.844;;;;
2019/04/26 04:39:03;;;;;;;7.8;2.2;;;;;;;10.47;68.12891;930.9453;;;;
2019/04/26 04:41:30;;;;;;;5.5;2;;;;;;;10.54;67.87891;931.0135;;;;
2019/04/26 04:43:57;;;;;;;8.8;2.5;;;;;;;10.47;68.54199;931.0972;;;;
2019/04/26 04:46:36;;;;;;;5.3;2.3;;;;;;;10.68;67.91113;930.9188;;;;
2019/04/26 04:48:52;;;;;;;6.1;2.4;;;;;;;10.72;67.91895;930.9863;;;;
2019/04/26 04:51:12;;;;;;;6.3;2.4;;;;;;;10.6;68.44824;931.0706;;;;
2019/04/26 04:53:40;;;;;;;7.3;2.5;;;;;;;10.68;68.33398;931.1696;;;;
2019/04/26 04:56:07;;;;;;;4.9;2.7;;;;;;;10.49;68.85156;931.367;;;;
2019/04/26 04:58:32;;;;;;;8.1;2.6;;;;;;;10.46;69.24609;931.3917;;;;
2019/04/26 05:01:05;;;;;;;6.6;2.4;;;;;;;10.69;68.24414;931.3638;;;;
2019/04/26 05:03:31;;;;;;;4.9;2.5;;;;;;;10.72;68.25;931.4233;;;;
2019/04/26 05:05:55;;;;;;;6.7;2.6;;;;;;;10.61;68.68848;931.4777;;;;
2019/04/26 05:08:14;;;;;;;8.3;2.7;;;;;;;10.61;68.75781;931.5581;;;;
2019/04/26 05:10:39;;;;;;;10;3;;;;;;;10.71;68.46387;931.6758;;;;
2019/04/26 05:13:04;;;;;;;10.8;3.2;;;;;;;10.68;68.65332;931.7085;;;;
2019/04/26 05:15:43;;;;;;;7;3.1;;;;;;;10.19;70.67578;931.551;;;;
2019/04/26 05:17:54;;;;;;;6.5;2.8;;;;;;;10.22;70.80664;931.7092;;;;
2019/04/26 05:20:20;;;;;;;4.3;2.8;;;;;;;10.12;71.04199;931.7952;;;;
2019/04/26 05:22:45;;;;;;;8.8;3;;;;;;;10.46;69.79395;931.7444;;;;
2019/04/26 05:27:22;;;;;;;6.6;2.9;;;;;;;10.28;70.29102;931.7927;;;;
2019/04/26 05:29:40;;;;;;;6.2;2.7;;;;;;;10.41;70.08301;931.9314;;;;
2019/04/26 05:32:04;;;;;;;8.9;3.6;;;;;;;10.24;71.01563;931.9916;;;;
2019/04/26 05:34:35;;;;;;;8.2;3;;;;;;;10.51;69.93945;931.9042;;;;
2019/04/26 05:36:55;;;;;;;10.1;3;;;;;;;10.47;70.19727;932.0014;;;;
2019/04/26 05:39:24;;;;;;;7.8;3.1;;;;;;;11.05;67.80762;932.0436;;;;
2019/04/26 05:41:47;;;;;;;8.5;2.6;;;;;;;11.72;65.41992;932.0474;;;;
2019/04/26 05:44:21;;;;;;;5.8;3;;;;;;;12.33;62.71387;932.0751;;;;
2019/04/26 05:46:39;;;;;;;7.1;3.7;;;;;;;12.48;62.19531;932.1692;;;;
2019/04/26 05:49:06;;;;;;;4.3;2.4;;;;;;;13.57;58.81055;932.2546;;;;
2019/04/26 05:51:32;;;;;;;5.4;2.3;;;;;;;14.92;54.29883;932.2752;;;;
2019/04/26 05:57:48;;;;;;;5.4;2.4;;;;;;;16.41;49.25391;932.3486;;;;
2019/04/26 06:07:21;;;;;;;4.7;2.2;;;;;;;18.43;44.67871;932.5151;;;;
2019/04/26 06:12:06;;;;;;;4.6;2.2;;;;;;;17.67;45.86621;932.38;;;;
2019/04/26 06:14:59;;;;;;;4.7;2.1;;;;;;;18.08;45.1084;932.42;;;;
2019/04/26 06:20:02;;;;;;;6.2;2.1;;;;;;;17.81;45.13867;932.4949;;;;
2019/04/26 06:22:17;;;;;;;4.3;2;;;;;;;19.21;42.38184;932.6717;;;;
2019/04/26 06:24:47;;;;;;;4.4;2.2;;;;;;;20.55;38.67871;932.7146;;;;
2019/04/26 06:27:21;;;;;;;4.4;2.2;;;;;;;21.58;37.00098;932.6776;;;;
2019/04/26 06:29:40;;;;;;;5;1.9;;;;;;;21.48;36.79297;932.7233;;;;
2019/04/26 06:32:05;;;;;;;5.3;2;;;;;;;21.52;36.41016;932.6866;;;;
2019/04/26 06:34:30;;;;;;;4.4;1.8;;;;;;;22.4;34.74609;932.7762;;;;
2019/04/26 06:37:05;;;;;;;4.1;1.8;;;;;;;22.93;33.97656;932.8972;;;;
2019/04/26 06:39:29;;;;;;;3.2;1.8;;;;;;;22.09;35.68359;932.897;;;;
2019/04/26 06:42:05;;;;;;;3.5;1.9;;;;;;;23.55;32.88379;932.8936;;;;
2019/04/26 06:44:25;;;;;;;4.1;1.9;;;;;;;23.92;31.85254;932.8347;;;;
2019/04/26 06:47:01;;;;;;;3.6;1.9;;;;;;;23.86;32.12988;932.8105;;;;
2019/04/26 06:51:41;;;;;;;3.4;1.8;;;;;;;23.66;32.71582;932.7592;;;;
2019/04/26 06:54:07;;;;;;;6.2;1.7;;;;;;;22.33;36.14844;932.7957;;;;
2019/04/26 06:56:37;;;;;;;4.5;1.8;;;;;;;23.1;34.24902;932.7665;;;;
2019/04/26 06:59:49;;;;;;;4.8;2;;;;;;;22.71;35.42773;932.8383;;;;
2019/04/26 07:02:14;;;;;;;5.6;1.8;;;;;;;22.96;33.88574;932.8184;;;;
2019/04/26 07:04:41;;;;;;;4.8;1.9;;;;;;;22.4;35.52051;932.7255;;;;
2019/04/26 07:07:06;;;;;;;6.8;2;;;;;;;21.2;38.08105;932.8016;;;;
2019/04/26 07:09:47;;;;;;;3.8;1.9;;;;;;;21.23;37.38184;932.9011;;;;
2019/04/26 07:14:39;;;;;;;5.5;2;;;;;;;19.4;42.03906;933.0033;;;;
2019/04/26 07:17:16;;;;;;;6.3;2.1;;;;;;;19.64;41.09375;933.01;;;;
2019/04/26 07:22:35;;;;;;;4.5;2.3;;;;;;;18.82;44.05469;932.9878;;;;
2019/04/26 07:24:58;;;;;;;7.5;2.6;;;;;;;17.71;45.31348;932.9927;;;;
2019/04/26 07:27:11;;;;;;;7.7;2.6;;;;;;;17.66;46.25977;933.0559;;;;
2019/04/26 07:29:49;;;;;;;6.2;2.9;;;;;;;17.36;47.30762;933.0042;;;;
2019/04/26 07:32:18;;;;;;;9;3.2;;;;;;;16.95;48.25977;933.0689;;;;
2019/04/26 07:35:43;;;;;;;4.4;2.6;;;;;;;17.43;46.68848;933.149;;;;
2019/04/26 07:38:11;;;;;;;6;2.9;;;;;;;17.07;48.6084;933.2178;;;;
2019/04/26 07:41:09;;;;;;;5.2;2.7;;;;;;;16.93;47.30664;933.1797;;;;
2019/04/26 07:45:17;;;;;;;6.5;2.9;;;;;;;15.79;50.96289;933.3042;;;;
2019/04/26 07:47:34;;;;;;;7.1;3.2;;;;;;;15.98;50.88086;933.3452;;;;
2019/04/26 07:49:59;;;;;;;5.3;3;;;;;;;15.6;51.95801;933.3651;;;;
2019/04/26 07:53:54;;;;;;;7;3;;;;;;;15.32;52.55957;933.3694;;;;
2019/04/26 07:56:28;;;;;;;6.2;3.1;;;;;;;15.27;52.46191;933.3325;;;;
2019/04/26 07:59:13;;;;;;;7.6;3.1;;;;;;;14.99;53.08594;933.3354;;;;
2019/04/26 08:04:01;;;;;;;7;3.2;;;;;;;14.88;53.94922;933.3059;;;;
2019/04/26 08:06:19;;;;;;;5.3;3.5;;;;;;;14.7;55.18164;933.4519;;;;
2019/04/26 08:08:56;;;;;;;7.8;3.7;;;;;;;14.79;54.16699;933.3767;;;;
2019/04/26 08:11:32;;;;;;;9.5;4.3;;;;;;;14.63;55.21973;933.387;;;;
2019/04/26 08:13:57;;;;;;;7.5;4.4;;;;;;;14.27;56.08301;933.4936;;;;
2019/04/26 08:16:33;;;;;;;6.9;4.4;;;;;;;14.02;57.8125;933.4202;;;;
2019/04/26 08:19:04;;;;;;;11.7;5;;;;;;;13.79;58.33398;933.4078;;;;
2019/04/26 08:21:37;;;;;;;5.6;4.6;;;;;;;13.69;59.12695;933.4312;;;;
2019/04/26 08:24:23;;;;;;;7.2;4.8;;;;;;;13.96;57.88477;933.4822;;;;
2019/04/26 08:26:43;;;;;;;7.5;4.4;;;;;;;14;57.39551;933.4937;;;;
2019/04/26 08:29:11;;;;;;;9.9;5.1;;;;;;;13.81;58.70605;933.4988;;;;
2019/04/26 08:31:36;;;;;;;10.4;5;;;;;;;13.47;59.6123;933.4955;;;;
2019/04/26 08:34:10;;;;;;;6;4.2;;;;;;;13.76;57.58301;933.432;;;;
2019/04/26 08:36:51;;;;;;;7.5;3.9;;;;;;;13.84;57.57129;933.4739;;;;
2019/04/26 08:39:12;;;;;;;4.7;3.6;;;;;;;13.67;58.47852;933.4969;;;;
2019/04/26 08:41:35;;;;;;;4.9;3.5;;;;;;;13.69;57.81543;933.572;;;;
2019/04/26 08:44:23;;;;;;;4.8;3.1;;;;;;;13.82;56.66992;933.5829;;;;
2019/04/26 08:46:52;;;;;;;6.4;2.7;;;;;;;13.68;57.31934;933.5561;;;;
2019/04/26 08:51:18;;;;;;;4.9;2.4;;;;;;;13.72;56.95605;933.655;;;;
2019/04/26 08:53:44;;;;;;;3.9;2.8;;;;;;;13.7;57.1377;933.6992;;;;
2019/04/26 08:56:24;;;;;;;3.5;2.9;;;;;;;13.12;59.25488;933.7303;;;;
2019/04/26 08:59:03;;;;;;;4;2.5;;;;;;;13.47;57.2793;933.6786;;;;
2019/04/26 09:01:36;;;;;;;4.7;2.3;;;;;;;13.57;57.67188;933.757;;;;
2019/04/26 09:04:00;;;;;;;4.2;1.7;;;;;;;13.37;58.48438;933.7449;;;;
2019/04/26 09:08:09;;;;;;;3;1.7;;;;;;;13.35;58.81445;933.8201;;;;
2019/04/26 09:08:43;;;;;;;4.4;1.5;;;;;;;13.39;58.88965;933.935;;;;
2019/04/26 09:11:08;;;;;;;4.1;1.4;;;;;;;13.26;58.14844;934.0215;;;;
2019/04/26 09:13:35;;;;;;;5.2;1.9;;;;;;;12.94;59.15137;934.0309;;;;
2019/04/26 09:16:25;;;;;;;2.9;1.5;;;;;;;12.85;59.33398;933.9604;;;;
2019/04/26 09:18:50;;;;;;;3.2;1.3;;;;;;;12.42;59.58398;933.9687;;;;
2019/04/26 09:21:20;;;;;;;3.9;1.2;;;;;;;12.13;61.38965;934.0467;;;;
2019/04/26 09:26:08;;;;;;;4.5;1.1;;;;;;;12.23;60.50977;934.0187;;;;
2019/04/26 09:31:11;;;;;;;3.1;1.2;;;;;;;12.09;60.73047;934.1019;;;;
2019/04/26 09:33:46;;;;;;;3.7;1.2;;;;;;;12.09;60.69629;934.1658;;;;
2019/04/26 09:35:50;;;;;;;6.4;1.2;;;;;;;12.09;61.31445;934.2383;;;;
2019/04/26 09:38:15;;;;;;;2.3;1.1;;;;;;;11.98;61.24219;934.3181;;;;
2019/04/26 09:40:40;;;;;;;1.8;1;;;;;;;12.05;61.96094;934.26;;;;
2019/04/26 09:43:22;;;;;;;8.1;1.5;;;;;;;12.18;60.63965;934.3179;;;;
2019/04/26 09:45:37;;;;;;;14.1;1.6;;;;;;;12.1;60.61816;934.2711;;;;
2019/04/26 09:48:02;;;;;;;3.9;1;;;;;;;12.12;61.28516;934.3284;;;;
2019/04/26 09:50:54;;;;;;;4.1;1;;;;;;;11.94;61.71777;934.2281;;;;
2019/04/26 09:52:48;;;;;;;1.8;1.1;;;;;;;12.14;61.50586;934.3563;;;;
2019/04/26 09:55:13;;;;;;;2.5;0.8;;;;;;;11.86;62.81738;934.4246;;;;
2019/04/26 09:57:38;;;;;;;2.7;0.8;;;;;;;12.14;61.81543;934.3643;;;;
2019/04/26 10:00:03;;;;;;;2.2;0.9;;;;;;;11.91;63.11035;934.4101;;;;
2019/04/26 10:02:28;;;;;;;3.7;0.8;;;;;;;12.1;62.25586;934.3181;;;;
2019/04/26 10:04:53;;;;;;;2;0.8;;;;;;;11.97;61.97266;934.3661;;;;
2019/04/26 10:07:18;;;;;;;1.7;0.7;;;;;;;11.83;61.95508;934.4063;;;;
2019/04/26 10:09:43;;;;;;;2.4;0.8;;;;;;;12.12;62.67188;934.3667;;;;
2019/04/26 10:12:22;;;;;;;2.1;0.7;;;;;;;12.25;62.05957;934.3147;;;;
2019/04/26 10:14:44;;;;;;;6.9;1;;;;;;;12.06;62.76563;934.3948;;;;
2019/04/26 10:21:14;;;;;;;4.4;1.1;;;;;;;11.66;64.60742;934.4194;;;;
2019/04/26 10:21:49;;;;;;;2.9;0.9;;;;;;;11.54;65.54102;934.3889;;;;
2019/04/26 10:24:15;;;;;;;3.8;0.9;;;;;;;11.71;65.21094;934.3628;;;;
2019/04/26 10:26:40;;;;;;;2;0.9;;;;;;;11.71;65.05078;934.4648;;;;
2019/04/26 10:29:24;;;;;;;4.2;1.3;;;;;;;11.72;65.4082;934.366;;;;
2019/04/26 10:32:04;;;;;;;4;1.3;;;;;;;11.83;64.1875;934.4573;;;;
2019/04/26 10:34:40;;;;;;;1.2;1;;;;;;;12.05;65.18066;934.6303;;;;
2019/04/26 10:37:26;;;;;;;2.3;0.8;;;;;;;11.79;65.53125;934.7084;;;;
2019/04/26 10:40:04;;;;;;;2.4;0.7;;;;;;;11.69;66.33105;934.7942;;;;
2019/04/26 10:42:39;;;;;;;3;0.7;;;;;;;11.84;66.39844;934.8817;;;;
2019/04/26 10:45:16;;;;;;;2.9;0.7;;;;;;;11.55;66.30957;934.9025;;;;
2019/04/26 10:47:41;;;;;;;1.9;0.6;;;;;;;11.54;68.57422;934.8992;;;;
2019/04/26 10:50:10;;;;;;;1.3;0.6;;;;;;;11.68;68.7666;934.8684;;;;
2019/04/26 10:52:43;;;;;;;1.4;0.6;;;;;;;11.49;68.50781;934.9941;;;;
2019/04/26 10:55:39;;;;;;;2;0.8;;;;;;;10.97;70.4043;934.9526;;;;
2019/04/26 10:57:35;;;;;;;1.8;1;;;;;;;10.78;73.61621;934.9089;;;;
2019/04/26 10:59:59;;;;;;;2;0.9;;;;;;;10.94;72.25;934.8251;;;;
2019/04/26 11:02:22;;;;;;;3.1;0.9;;;;;;;10.47;74.61426;934.7698;;;;
2019/04/26 11:04:47;;;;;;;4.6;2.9;;;;;;;11.03;73.14355;935.0328;;;;
2019/04/26 11:07:12;;;;;;;2.3;1.1;;;;;;;10.97;73.05566;935.1566;;;;
2019/04/26 11:09:37;;;;;;;2.7;0.7;;;;;;;11.2;73.19531;935.1216;;;;
2019/04/26 11:12:05;;;;;;;1.1;0.6;;;;;;;11.2;72.70313;935.0706;;;;
2019/04/26 11:14:31;;;;;;;1.2;0.7;;;;;;;10.84;74.90625;935.1833;;;;
2019/04/26 11:16:53;;;;;;;1.1;0.7;;;;;;;10.84;74.64355;935.349;;;;
2019/04/26 11:19:20;;;;;;;3.5;1.1;;;;;;;10.78;75.94824;935.4305;;;;
2019/04/26 11:21:44;;;;;;;2.5;0.6;;;;;;;10.87;74.88867;935.537;;;;
2019/04/26 11:24:10;;;;;;;1.3;0.6;;;;;;;10.83;75.23633;935.5879;;;;
2019/04/26 11:26:35;;;;;;;2.2;0.7;;;;;;;10.69;76.2959;935.5934;;;;
2019/04/26 11:29:00;;;;;;;1.3;0.7;;;;;;;10.81;75.73633;935.6361;;;;
2019/04/26 11:31:25;;;;;;;1.5;0.7;;;;;;;10.78;75.95801;935.7921;;;;
2019/04/26 11:33:50;;;;;;;2.4;0.9;;;;;;;11.07;74.71875;935.8225;;;;
2019/04/26 11:36:15;;;;;;;1.6;0.9;;;;;;;11.08;75.14355;935.809;;;;
2019/04/26 11:38:40;;;;;;;1.8;0.7;;;;;;;10.93;74.99219;935.832;;;;
2019/04/26 11:41:05;;;;;;;2.3;0.9;;;;;;;10.71;75.4668;935.8244;;;;
2019/04/26 11:43:33;;;;;;;1.6;1;;;;;;;10.61;77.05859;935.9319;;;;
2019/04/26 11:45:58;;;;;;;1.2;0.8;;;;;;;10.23;78.53125;935.9007;;;;
2019/04/26 11:48:41;;;;;;;2.8;0.8;;;;;;;10.48;77.7666;935.9997;;;;
2019/04/26 11:51:06;;;;;;;1.6;1;;;;;;;10.26;79.6543;936.1786;;;;
2019/04/26 11:53:31;;;;;;;2.1;1.1;;;;;;;10.59;77.60547;936.2646;;;;
2019/04/26 11:55:56;;;;;;;3.1;1.3;;;;;;;10.43;79.19531;936.4594;;;;
2019/04/26 11:58:21;;;;;;;3;1.2;;;;;;;10.55;78.80762;936.4769;;;;
2019/04/26 12:00:55;;;;;;;2.1;1.2;;;;;;;10.57;78.2627;936.4874;;;;
2019/04/26 12:03:24;;;;;;;3.2;1.1;;;;;;;10.67;77.46973;936.4358;;;;
2019/04/26 12:05:54;;;;;;;2.4;1.1;;;;;;;10.65;77.07813;936.6164;;;;
2019/04/26 12:08:45;;;;;;;4.6;1.6;;;;;;;10.26;78.8457;936.6489;;;;
2019/04/26 12:10:50;;;;;;;2.7;1.1;;;;;;;10.23;78.29199;936.4991;;;;
2019/04/26 12:13:15;;;;;;;3.5;1.3;;;;;;;10.37;77.37012;936.5072;;;;
2019/04/26 12:15:45;;;;;;;2.2;0.8;;;;;;;10.56;76.98242;936.5988;;;;
2019/04/26 12:18:10;;;;;;;3.3;1.4;;;;;;;10.74;78.06543;936.883;;;;
2019/04/26 12:20:36;;;;;;;4.7;1.2;;;;;;;10.61;77.16113;936.9598;;;;
2019/04/26 12:23:11;;;;;;;1.7;0.9;;;;;;;10.24;78.72852;936.944;;;;
2019/04/26 12:25:36;;;;;;;4.1;1.3;;;;;;;10.48;79.0791;937.0401;;;;
2019/04/26 12:28:01;;;;;;;1.3;1;;;;;;;10.55;76.90039;937.2667;;;;
2019/04/26 12:30:26;;;;;;;2;0.9;;;;;;;10.44;74.19727;937.2562;;;;
2019/04/26 12:32:53;;;;;;;2.4;1;;;;;;;10.07;77.77344;937.2314;;;;
2019/04/26 12:35:20;;;;;;;4.4;1.7;;;;;;;10.25;78.50195;937.2146;;;;
2019/04/26 12:37:46;;;;;;;2.5;1;;;;;;;10.24;78.21387;937.267;;;;
2019/04/26 12:40:18;;;;;;;1.8;0.7;;;;;;;10.1;76.02148;937.3773;;;;
2019/04/26 12:42:47;;;;;;;1.2;0.7;;;;;;;10.13;76.45996;937.2297;;;;
2019/04/26 12:45:29;;;;;;;0.9;0.5;;;;;;;9.91;71.71484;937.2583;;;;
2019/04/26 12:47:47;;;;;;;0.9;0.4;;;;;;;10.11;77.06152;937.1467;;;;
2019/04/26 12:50:06;;;;;;;0.5;0.4;;;;;;;10.01;74.44336;937.3045;;;;
2019/04/26 12:52:31;;;;;;;4.1;2.3;;;;;;;10.26;76.11914;937.3706;;;;
2019/04/26 12:54:56;;;;;;;1.6;0.7;;;;;;;10.36;75.31445;937.3142;;;;
2019/04/26 12:57:21;;;;;;;1;0.9;;;;;;;10.22;72.50586;937.3027;;;;
2019/04/26 12:59:49;;;;;;;0.3;0.3;;;;;;;10.05;70.5166;937.3133;;;;
2019/04/26 13:02:23;;;;;;;0.3;0.3;;;;;;;9.99;71.63379;937.2177;;;;
2019/04/26 13:04:49;;;;;;;0.9;0.3;;;;;;;10.26;71.34961;937.3364;;;;
2019/04/26 13:07:22;;;;;;;1.7;0.8;;;;;;;10.17;75.97754;937.4504;;;;
2019/04/26 13:10:11;;;;;;;4.2;2.3;;;;;;;9.96;76.7832;937.4369;;;;
2019/04/26 13:12:21;;;;;;;2.1;1;;;;;;;10.15;75.11816;937.4486;;;;
2019/04/26 13:15:00;;;;;;;2.2;1;;;;;;;10.02;75.90527;937.2914;;;;
2019/04/26 13:17:12;;;;;;;1.9;1;;;;;;;10.25;74.63184;937.4358;;;;
2019/04/26 13:19:55;;;;;;;1.6;1.1;;;;;;;10.04;74.62109;937.3864;;;;
2019/04/26 13:22:19;;;;;;;1.7;1;;;;;;;10.1;76.11328;937.6398;;;;
2019/04/26 13:24:47;;;;;;;3.6;1.6;;;;;;;10.32;74.52051;937.5598;;;;
2019/04/26 13:27:11;;;;;;;1.4;0.8;;;;;;;9.98;74.84961;937.515;;;;
2019/04/26 13:29:36;;;;;;;2.8;0.9;;;;;;;9.91;75.33887;937.7426;;;;
2019/04/26 13:32:05;;;;;;;1.4;1.3;;;;;;;10.09;77.19531;937.577;;;;
2019/04/26 13:34:52;;;;;;;1.7;0.9;;;;;;;9.83;78.62988;937.4316;;;;
2019/04/26 13:37:18;;;;;;;2.2;1.1;;;;;;;9.63;79.9043;937.5602;;;;
2019/04/26 13:39:45;;;;;;;3.9;0.8;;;;;;;9.81;77.50781;937.6584;;;;
2019/04/26 13:42:20;;;;;;;1;0.7;;;;;;;9.47;77.16309;937.7488;;;;
2019/04/26 13:45:05;;;;;;;2.7;0.8;;;;;;;9.32;77.53613;937.923;;;;
2019/04/26 13:47:22;;;;;;;0.9;0.7;;;;;;;9.24;77.79297;938.223;;;;
2019/04/26 13:50:02;;;;;;;2.1;1.3;;;;;;;9.35;76.6416;938.2294;;;;
2019/04/26 13:52:00;;;;;;;2.3;0.7;;;;;;;9.4;78.28906;938.1108;;;;
2019/04/26 13:54:25;;;;;;;2.9;1.4;;;;;;;9.21;77.44629;937.9286;;;;
2019/04/26 13:56:50;;;;;;;3.2;2.2;;;;;;;9.23;76.88086;937.8764;;;;
2019/04/26 13:59:16;;;;;;;2.4;0.5;;;;;;;9.04;72.44336;937.8298;;;;
2019/04/26 14:01:41;;;;;;;0.9;0.6;;;;;;;8.94;73.74805;937.9608;;;;
2019/04/26 14:04:06;;;;;;;6.3;5.8;;;;;;;9.02;73.83984;938.0305;;;;
2019/04/26 14:06:31;;;;;;;2.5;2;;;;;;;8.94;74.50977;938.1386;;;;
2019/04/26 14:08:57;;;;;;;0.9;0.8;;;;;;;8.62;76.10254;938.1666;;;;
2019/04/26 14:11:22;;;;;;;2.5;1.1;;;;;;;8.78;76.8457;938.3859;;;;
2019/04/26 14:13:50;;;;;;;0.8;0.5;;;;;;;8.58;77.2207;938.445;;;;
2019/04/26 14:16:15;;;;;;;1.6;0.9;;;;;;;8.44;75.83203;938.157;;;;
2019/04/26 14:18:57;;;;;;;0.8;0.3;;;;;;;8.41;77.76953;938.1973;;;;
2019/04/26 14:21:33;;;;;;;1.5;0.6;;;;;;;8.42;82.53223;938.2471;;;;
2019/04/26 14:27:40;;;;;;;1.9;1.3;;;;;;;9;82.10938;938.2094;;;;
2019/04/26 14:30:00;;;;;;;2.7;1;;;;;;;9.13;80.76855;938.3292;;;;
2019/04/26 14:32:26;;;;;;;3.3;2.2;;;;;;;9.02;80.15625;938.4792;;;;
2019/04/26 14:35:02;;;;;;;1.1;1;;;;;;;8.8;79.01074;938.5958;;;;
2019/04/26 14:37:27;;;;;;;3.5;0.7;;;;;;;8.96;79.05078;938.6114;;;;
2019/04/26 14:39:53;;;;;;;1.4;1;;;;;;;9.03;78.15332;938.6524;;;;
2019/04/26 14:42:18;;;;;;;1.2;0.6;;;;;;;8.77;78.36914;938.6533;;;;
2019/04/26 14:44:44;;;;;;;1.4;0.5;;;;;;;9.32;75.48633;938.4864;;;;
2019/04/26 14:47:10;;;;;;;0.7;0.4;;;;;;;9.46;74.63379;938.3766;;;;
2019/04/26 14:49:33;;;;;;;1.1;0.7;;;;;;;9.58;74.69922;938.4083;;;;
2019/04/26 14:52:03;;;;;;;1.7;0.8;;;;;;;9.65;75.12012;938.4111;;;;
2019/04/26 14:54:29;;;;;;;1;0.8;;;;;;;9.88;72.83691;938.3173;;;;
2019/04/26 14:56:53;;;;;;;1;0.7;;;;;;;10;72.98242;938.3322;;;;
2019/04/26 14:59:42;;;;;;;0.6;0.6;;;;;;;10.26;72.68457;938.3933;;;;
2019/04/26 15:02:04;;;;;;;0.8;0.5;;;;;;;10.01;71.37598;938.3907;;;;
2019/04/26 15:06:37;;;;;;;0.6;0.5;;;;;;;10.27;69.6748;938.4093;;;;
2019/04/26 15:09:01;;;;;;;0.7;0.6;;;;;;;10.16;72.00586;938.3343;;;;
2019/04/26 15:11:26;;;;;;;1.1;0.8;;;;;;;10.12;72.55859;938.2742;;;;
2019/04/26 15:13:54;;;;;;;1.1;1;;;;;;;10.44;67.6123;938.2322;;;;
2019/04/26 15:16:19;;;;;;;1;0.8;;;;;;;10.36;70.12012;938.2868;;;;
2019/04/26 15:18:44;;;;;;;1.5;0.9;;;;;;;10.62;69.56836;938.2756;;;;
2019/04/26 15:21:09;;;;;;;1.4;0.9;;;;;;;10.85;69.15918;938.2411;;;;
2019/04/26 15:23:34;;;;;;;1.6;1;;;;;;;10.73;70.33008;938.2645;;;;